sensor_id;sensor_type;location;lat;lon;timestamp;pressure;altitude;pressure_sealevel;temperature;humidity
78168;BME280;67410;42.698;23.378;2023-04-06T16:32:48;95193.50;;;3.40;56.94
78168;BME280;67410;42.698;23.378;2023-04-06T16:35:16;95202.50;;;3.52;57.51
78168;BME280;67410;42.698;23.378;2023-04-06T16:37:43;95199.72;;;3.54;57.64
78168;BME280;67410;42.698;23.378;2023-04-06T16:40:11;95191.16;;;3.60;57.00
78168;BME280;67410;42.698;23.378;2023-04-06T16:42:37;95204.75;;;3.55;56.34
78168;BME280;67410;42.698;23.378;2023-04-06T16:45:03;95205.09;;;3.52;54.74
78168;BME280;67410;42.698;23.378;2023-04-06T16:47:30;95209.38;;;3.60;55.33
78168;BME280;67410;42.698;23.378;2023-04-06T16:49:56;95205.47;;;3.49;56.02
78168;BME280;67410;42.698;23.378;2023-04-06T16:52:22;95206.28;;;3.50;55.94
78168;BME280;67410;42.698;23.378;2023-04-06T16:54:48;95213.34;;;3.56;56.43
78168;BME280;67410;42.698;23.378;2023-04-06T16:57:14;95207.72;;;3.52;56.45
78168;BME280;67410;42.698;23.378;2023-04-06T16:59:40;95199.97;;;3.44;55.89
78168;BME280;67410;42.698;23.378;2023-04-06T17:02:06;95213.16;;;3.57;57.46
78168;BME280;67410;42.698;23.378;2023-04-06T17:04:32;95212.63;;;3.47;55.53
78168;BME280;67410;42.698;23.378;2023-04-06T17:06:59;95223.22;;;3.46;56.02
78168;BME280;67410;42.698;23.378;2023-04-06T17:09:25;95222.53;;;3.52;56.07
78168;BME280;67410;42.698;23.378;2023-04-06T17:11:52;95227.91;;;3.50;56.33
78168;BME280;67410;42.698;23.378;2023-04-06T17:14:18;95229.34;;;3.53;56.24
78168;BME280;67410;42.698;23.378;2023-04-06T17:16:45;95237.22;;;3.59;56.55
78168;BME280;67410;42.698;23.378;2023-04-06T17:19:11;95229.34;;;3.53;56.06
78168;BME280;67410;42.698;23.378;2023-04-06T17:21:38;95244.56;;;3.56;56.02
78168;BME280;67410;42.698;23.378;2023-04-06T17:24:06;95243.78;;;3.55;57.01
78168;BME280;67410;42.698;23.378;2023-04-06T17:26:33;95254.81;;;3.57;56.29
78168;BME280;67410;42.698;23.378;2023-04-06T17:29:00;95244.84;;;3.46;56.30
78168;BME280;67410;42.698;23.378;2023-04-06T17:31:26;95263.59;;;3.56;55.20
78168;BME280;67410;42.698;23.378;2023-04-06T17:33:52;95255.38;;;3.53;55.76
78168;BME280;67410;42.698;23.378;2023-04-06T17:36:19;95251.91;;;3.37;56.11
78168;BME280;67410;42.698;23.378;2023-04-06T17:38:45;95251.91;;;3.37;56.20
78168;BME280;67410;42.698;23.378;2023-04-06T17:41:12;95271.63;;;3.55;56.27
78168;BME280;67410;42.698;23.378;2023-04-06T17:43:38;95260.75;;;3.51;55.63
78168;BME280;67410;42.698;23.378;2023-04-06T17:46:05;95264.31;;;3.35;56.65
78168;BME280;67410;42.698;23.378;2023-04-06T17:48:31;95280.38;;;3.39;56.28
78168;BME280;67410;42.698;23.378;2023-04-06T17:50:57;95278.78;;;3.53;57.56
78168;BME280;67410;42.698;23.378;2023-04-06T17:53:23;95275.09;;;3.62;56.66
78168;BME280;67410;42.698;23.378;2023-04-06T17:55:49;95281.41;;;3.53;56.11
78168;BME280;67410;42.698;23.378;2023-04-06T17:58:15;95274.19;;;3.40;56.03
78168;BME280;67410;42.698;23.378;2023-04-06T18:00:41;95281.34;;;3.38;55.86
78168;BME280;67410;42.698;23.378;2023-04-06T18:03:07;95291.53;;;3.48;56.40
78168;BME280;67410;42.698;23.378;2023-04-06T18:05:34;95292.75;;;3.37;56.59
78168;BME280;67410;42.698;23.378;2023-04-06T18:08:00;95290.31;;;3.21;56.62
78168;BME280;67410;42.698;23.378;2023-04-06T18:10:26;95299.63;;;3.30;56.82
78168;BME280;67410;42.698;23.378;2023-04-06T18:12:52;95295.34;;;3.37;56.95
78168;BME280;67410;42.698;23.378;2023-04-06T18:15:18;95294.03;;;3.56;55.97
78168;BME280;67410;42.698;23.378;2023-04-06T18:17:44;95314.25;;;3.54;55.85
78168;BME280;67410;42.698;23.378;2023-04-06T18:20:11;95306.50;;;3.46;55.33
78168;BME280;67410;42.698;23.378;2023-04-06T18:22:38;95304.31;;;3.34;55.46
78168;BME280;67410;42.698;23.378;2023-04-06T18:25:04;95301.09;;;3.32;55.67
78168;BME280;67410;42.698;23.378;2023-04-06T18:27:31;95306.56;;;3.37;55.03
78168;BME280;67410;42.698;23.378;2023-04-06T18:29:57;95314.63;;;3.28;54.57
78168;BME280;67410;42.698;23.378;2023-04-06T18:32:26;95316.34;;;3.35;55.95
78168;BME280;67410;42.698;23.378;2023-04-06T18:34:56;95321.91;;;3.32;55.50
78168;BME280;67410;42.698;23.378;2023-04-06T18:37:24;95309.63;;;3.26;55.57
78168;BME280;67410;42.698;23.378;2023-04-06T18:39:50;95317.16;;;3.36;55.03
78168;BME280;67410;42.698;23.378;2023-04-06T18:42:18;95324.19;;;3.50;55.42
78168;BME280;67410;42.698;23.378;2023-04-06T18:44:45;95315.69;;;3.19;55.55
78168;BME280;67410;42.698;23.378;2023-04-06T18:47:11;95318.44;;;3.40;55.59
78168;BME280;67410;42.698;23.378;2023-04-06T18:49:37;95326.03;;;3.27;55.81
78168;BME280;67410;42.698;23.378;2023-04-06T18:52:06;95328.63;;;3.27;54.87
78168;BME280;67410;42.698;23.378;2023-04-06T18:54:32;95338.94;;;3.35;54.91
78168;BME280;67410;42.698;23.378;2023-04-06T18:56:58;95332.06;;;3.42;55.31
78168;BME280;67410;42.698;23.378;2023-04-06T18:59:24;95337.78;;;3.37;54.68
78168;BME280;67410;42.698;23.378;2023-04-06T19:01:55;95333.91;;;3.33;54.79
78168;BME280;67410;42.698;23.378;2023-04-06T19:04:21;95333.34;;;3.46;55.04
78168;BME280;67410;42.698;23.378;2023-04-06T19:06:47;95335.94;;;3.46;54.02
78168;BME280;67410;42.698;23.378;2023-04-06T19:09:13;95340.63;;;3.51;54.21
78168;BME280;67410;42.698;23.378;2023-04-06T19:11:39;95333.88;;;3.42;54.50
78168;BME280;67410;42.698;23.378;2023-04-06T19:14:05;95326.19;;;3.25;54.03
78168;BME280;67410;42.698;23.378;2023-04-06T19:16:31;95341.25;;;3.30;54.18
78168;BME280;67410;42.698;23.378;2023-04-06T19:18:57;95333.38;;;3.23;54.37
78168;BME280;67410;42.698;23.378;2023-04-06T19:21:24;95328.16;;;3.23;54.28
78168;BME280;67410;42.698;23.378;2023-04-06T19:23:52;95328.69;;;3.19;54.43
78168;BME280;67410;42.698;23.378;2023-04-06T19:26:22;95339.41;;;3.38;53.55
78168;BME280;67410;42.698;23.378;2023-04-06T19:28:48;95341.09;;;3.31;53.68
78168;BME280;67410;42.698;23.378;2023-04-06T19:31:16;95340.75;;;3.34;53.20
78168;BME280;67410;42.698;23.378;2023-04-06T19:33:45;95334.53;;;3.21;54.46
78168;BME280;67410;42.698;23.378;2023-04-06T19:36:12;95337.94;;;3.21;54.31
78168;BME280;67410;42.698;23.378;2023-04-06T19:38:38;95332.72;;;3.21;53.69
78168;BME280;67410;42.698;23.378;2023-04-06T19:41:05;95341.06;;;3.17;54.77
78168;BME280;67410;42.698;23.378;2023-04-06T19:43:31;95342.63;;;3.26;54.20
78168;BME280;67410;42.698;23.378;2023-04-06T19:45:57;95344.94;;;3.21;54.54
